Etusivu
METAR-TAF:

METAR-TAF

Lentoasemat :

Calvinia, Etelä-Afrikka

Leveyspiiri: 31-28-56S, Pituuspiiri: 19-45-43E, korkeus merenpinnasta: 977 m

Tämänhetkinen sää

Tämä raportti tehtiin 17 tuntia ja 45 minuuttia sitten, kello 10.36 UTC
Tuuli 19 kn idästä/koillisesta
Lämpötila 20°C
Kosteus 43%
Ilmanpaine 1022 hPa
Näkyvyys 10 km tai enemmän
Muutamia pilviä 5000 ft:n korkeudessa, Cumulonimbus.

METAR: FACV 221036Z 07019KT 9999 FEW050CB 20/07 Q1022

Aika: 06:21 (04:21 UTC)


TAF: puuttuu

Säähavainnot ja -ennusteet yli 4000 lentoasemalta (METAR- ja TAF-raportit).

Käytössä olevat sääasemat on merkitty karttaan keltaisilla ja punaisilla pisteillä.

Aseta hiiri pisteen päälle nähdäksesi sääaseman nimen.

Klikkaa sitten nähdäksesi säähavainnot ja -ennusteet.

Kartan vaihtaminen: klikkaa mustalla rastilla varustettuja vihreitä pisteitä, niin voit zoomata sisään; viivalla varustettua vihreää pistettä, niin voit zoomata ulos tai vihreitä nuolia, niin pääset viereisille kartoille.


METAR-TAF: